Portada
METAR-TAF:

METAR-TAF

Aeroports :

Bombai, Índia

latitud: 19-07N, longitud: 072-51E, altitud: 8 m

Observació

L'informe es va fer fa 11 minuts, a les 05:00 UTC
Vent 6 kt del Oest
Temperatura 32°C
Humitat 63%
Pressió 1010 hPa
Visibilitat: 6000 m
Escasses núvols a una alçada de 2000 ft

METAR: VABB 220500Z 26006KT 6000 FEW020 32/24 Q1010 NOSIG

Hora: 10:41 (05:11 UTC)

Pronòstic

L'informe es va fer fa 3 hores i 11 minuts, a les 02:00 UTC
Pronòstic vàlid del 22 a les 03 UTC al 22 a les 12 UTC
Vent 3 kt amb direcció variable
Visibilitat: 3000 m
calitja
Evolucionant progressivament
l' 22 a les 06 UTC al 22 a les 08 UTC
Vent 8 kt del Oest
Visibilitat: 5000 m
Escasses núvols a una alçada de 2000 ft
calitja
Evolucionant progressivament
l' 22 a les 09 UTC al 22 a les 11 UTC
Visibilitat: 6000 m

TAF: VABB 220200Z 2203/2212 VRB03KT 3000 HZ NSC BECMG 2206/2208 27008KT 5000 HZ FEW020 BECMG 2209/2211 6000

Observacions i pronòstics meteorològics de més de 4000 aeroports (METAR i TAF).

Les estacions disponibles són els punts grocs i vermells al mapa.

Posi el ratolí al punt desitjat per veure el nom de l'estació.

Feu clic per veure les observacions i els pronòstics meteorològics.

Per canviar el mapa: feu clic els botons verds amb una creu de color negre per apropar; al botó verd amb un guió per allunyar la imatge; o en les fletxes verdes per a mapes adjacents.


METAR-TAF: